Time;durP1;ratioP1;P1;durP2;ratioP2;P2;SDS_P1;SDS_P2;PMS_P1;PMS_P2;Temp;Humidity;BMP_temperature;BMP_pressure;BME280_temperature;BME280_humidity;BME280_pressure;Samples;Min_cycle;Max_cycle;Signal;HPM_P1;HPM_P2
2023/10/25 00:01:43;;;;;;;2.85;2.35;;;13.60;77.10;;;;;;5082731;28;20036;-63
2023/10/25 00:04:08;;;;;;;2.85;2.35;;;13.60;77.10;;;;;;5088764;28;20405;-62
2023/10/25 00:06:34;;;;;;;2.20;2.00;;;13.60;77.10;;;;;;5083140;28;20020;-62
2023/10/25 00:09:00;;;;;;;2.50;2.30;;;13.60;77.10;;;;;;5090977;28;20502;-64
2023/10/25 00:11:25;;;;;;;2.97;2.30;;;13.60;77.10;;;;;;5081606;28;20028;-63
2023/10/25 00:13:51;;;;;;;2.75;2.53;;;13.60;77.10;;;;;;5089194;28;20032;-62
2023/10/25 00:16:17;;;;;;;3.55;2.58;;;13.60;77.10;;;;;;5081771;28;20021;-63
2023/10/25 00:18:42;;;;;;;2.63;2.42;;;13.60;77.10;;;;;;5086201;28;20035;-63
2023/10/25 00:21:09;;;;;;;2.50;2.28;;;13.60;77.00;;;;;;5088785;28;20764;-62
2023/10/25 00:23:35;;;;;;;3.60;2.08;;;13.60;77.00;;;;;;5090341;28;20842;-63
2023/10/25 00:26:00;;;;;;;2.50;2.17;;;13.60;77.00;;;;;;5083746;28;20056;-64
2023/10/25 00:28:26;;;;;;;4.32;2.03;;;13.60;77.10;;;;;;5074643;28;20130;-63
2023/10/25 00:30:52;;;;;;;4.00;2.45;;;13.60;77.00;;;;;;5086727;28;20107;-63
2023/10/25 00:33:17;;;;;;;2.63;2.40;;;13.60;77.10;;;;;;5091669;28;20059;-63
2023/10/25 00:35:43;;;;;;;3.95;2.80;;;13.50;77.10;;;;;;5091209;28;20143;-63
2023/10/25 00:38:09;;;;;;;5.00;2.80;;;13.60;77.20;;;;;;5095247;28;20036;-63
2023/10/25 00:40:34;;;;;;;3.67;2.47;;;13.50;77.10;;;;;;5088984;28;20032;-64
2023/10/25 00:43:19;;;;;;;3.30;2.95;;;13.60;77.20;;;;;;5073526;28;20028;-64
2023/10/25 00:46:13;;;;;;;4.93;2.67;;;13.50;77.30;;;;;;5096032;28;20032;-63
2023/10/25 00:48:42;;;;;;;5.27;2.83;;;13.50;77.20;;;;;;5087019;28;20085;-63
2023/10/25 00:51:09;;;;;;;4.13;3.10;;;13.50;77.10;;;;;;5087175;28;20755;-65
2023/10/25 00:53:40;;;;;;;3.35;3.03;;;13.50;77.20;;;;;;5090383;28;20032;-64
2023/10/25 00:56:09;;;;;;;3.53;3.20;;;13.50;77.00;;;;;;5086480;28;20031;-62
2023/10/25 00:58:35;;;;;;;5.55;3.40;;;13.50;77.70;;;;;;5087311;28;20031;-64
2023/10/25 01:01:01;;;;;;;4.15;3.47;;;13.40;76.90;;;;;;5084119;28;20045;-63
2023/10/25 01:03:27;;;;;;;3.38;3.08;;;13.40;77.10;;;;;;5087102;28;20054;-63
2023/10/25 01:05:53;;;;;;;4.38;3.05;;;13.40;77.20;;;;;;5087184;28;20020;-63
2023/10/25 01:08:20;;;;;;;3.53;3.22;;;13.40;77.30;;;;;;5092858;28;20077;-62
2023/10/25 01:10:50;;;;;;;3.72;3.42;;;13.40;77.40;;;;;;5092755;28;20024;-64
2023/10/25 01:13:16;;;;;;;4.25;3.70;;;13.40;77.50;;;;;;5087604;28;20072;-62
2023/10/25 01:15:42;;;;;;;5.13;4.07;;;13.40;77.60;;;;;;5091907;28;20446;-63
2023/10/25 01:18:09;;;;;;;6.88;4.05;;;13.40;77.60;;;;;;5092695;28;20058;-63
2023/10/25 01:20:35;;;;;;;4.30;3.90;;;13.40;77.70;;;;;;5087283;28;20458;-63
2023/10/25 01:23:01;;;;;;;4.65;4.10;;;13.30;77.60;;;;;;5087539;28;20626;-63
2023/10/25 01:25:26;;;;;;;6.70;3.97;;;13.30;77.50;;;;;;5070253;28;20059;-64
2023/10/25 01:27:52;;;;;;;3.65;3.10;;;13.40;77.50;;;;;;5091673;28;20035;-63
2023/10/25 01:30:18;;;;;;;3.58;2.97;;;13.30;77.40;;;;;;5090796;28;20367;-62
2023/10/25 01:32:44;;;;;;;3.22;2.92;;;13.30;77.30;;;;;;5067279;28;20085;-62
2023/10/25 01:35:10;;;;;;;3.97;2.65;;;13.30;77.20;;;;;;5090054;28;20027;-63
2023/10/25 01:37:36;;;;;;;2.80;2.60;;;13.30;77.10;;;;;;5088458;28;20097;-62
2023/10/25 01:40:05;;;;;;;2.85;2.55;;;13.30;77.00;;;;;;5091931;28;20063;-63
2023/10/25 01:42:31;;;;;;;3.42;2.40;;;13.30;77.00;;;;;;5066020;28;20029;-62
2023/10/25 01:44:56;;;;;;;2.95;2.65;;;13.30;77.00;;;;;;5092734;28;20472;-63
2023/10/25 01:47:22;;;;;;;2.72;2.53;;;13.20;77.00;;;;;;5001318;28;20036;-64
2023/10/25 01:49:48;;;;;;;3.33;2.70;;;13.20;77.00;;;;;;5090449;28;20028;-63
2023/10/25 01:52:13;;;;;;;3.17;2.38;;;13.20;77.00;;;;;;5085037;28;20081;-63
2023/10/25 01:54:42;;;;;;;2.42;2.20;;;13.20;77.10;;;;;;5085988;28;20072;-63
2023/10/25 01:57:08;;;;;;;3.40;2.60;;;13.20;76.90;;;;;;5084270;28;20024;-64
2023/10/25 01:59:33;;;;;;;2.70;2.50;;;13.10;76.90;;;;;;5082191;28;20498;-62
2023/10/25 02:01:59;;;;;;;2.28;2.08;;;13.10;77.10;;;;;;5080057;28;20031;-63
2023/10/25 02:04:25;;;;;;;2.13;1.90;;;13.10;77.20;;;;;;5090435;28;20052;-63
2023/10/25 02:06:54;;;;;;;5.18;2.25;;;13.10;77.30;;;;;;5092341;28;20024;-64
2023/10/25 02:09:20;;;;;;;2.30;2.10;;;13.10;77.40;;;;;;5082109;28;20032;-64
2023/10/25 02:11:46;;;;;;;3.47;2.03;;;13.00;77.50;;;;;;5068411;28;20051;-63
2023/10/25 02:14:12;;;;;;;2.35;2.15;;;13.10;77.60;;;;;;5088148;28;20076;-64
2023/10/25 02:16:37;;;;;;;2.58;2.22;;;13.10;77.60;;;;;;5088920;28;20036;-63
2023/10/25 02:19:03;;;;;;;2.40;2.20;;;13.10;77.60;;;;;;5086235;28;20104;-63
2023/10/25 02:21:29;;;;;;;2.10;1.92;;;13.10;77.60;;;;;;5086158;28;20067;-64
2023/10/25 02:23:55;;;;;;;3.88;2.20;;;13.10;77.60;;;;;;5087183;28;20556;-63
2023/10/25 02:26:21;;;;;;;3.42;1.90;;;13.10;77.60;;;;;;5084712;28;20047;-64
2023/10/25 02:28:46;;;;;;;2.95;2.00;;;13.10;77.50;;;;;;5068688;28;20738;-63
2023/10/25 02:31:12;;;;;;;2.35;2.13;;;13.10;77.40;;;;;;5089444;28;20020;-62
2023/10/25 02:33:38;;;;;;;2.40;2.13;;;13.10;77.30;;;;;;5087554;28;20463;-64
2023/10/25 02:36:04;;;;;;;2.70;2.15;;;13.10;77.30;;;;;;5087671;28;20032;-63
2023/10/25 02:38:30;;;;;;;4.97;2.53;;;13.10;77.30;;;;;;5081685;28;20803;-62
2023/10/25 02:40:56;;;;;;;3.17;2.20;;;13.10;77.30;;;;;;5086524;28;20055;-64
2023/10/25 02:43:21;;;;;;;2.38;2.17;;;13.10;77.30;;;;;;5092165;28;20092;-64
2023/10/25 02:45:47;;;;;;;3.60;2.40;;;13.10;77.30;;;;;;5089266;28;20176;-62
2023/10/25 02:48:15;;;;;;;2.45;2.10;;;13.10;77.20;;;;;;5081359;28;20083;-64
2023/10/25 02:50:41;;;;;;;2.45;2.25;;;13.10;77.80;;;;;;5089328;28;20118;-64
2023/10/25 02:53:07;;;;;;;3.00;1.85;;;13.10;77.20;;;;;;5079400;28;20098;-64
2023/10/25 02:55:33;;;;;;;2.50;2.30;;;13.10;77.20;;;;;;5089528;28;20042;-64
2023/10/25 02:57:59;;;;;;;6.93;2.20;;;13.00;77.10;;;;;;5088115;28;20046;-62
2023/10/25 03:00:25;;;;;;;4.22;1.95;;;13.00;77.10;;;;;;5084827;28;20054;-63
2023/10/25 03:02:51;;;;;;;2.45;1.90;;;13.00;77.10;;;;;;5090983;28;20455;-63
2023/10/25 03:05:16;;;;;;;4.80;1.80;;;13.00;77.10;;;;;;5089476;28;20027;-64
2023/10/25 03:07:42;;;;;;;2.58;2.10;;;13.00;77.10;;;;;;5090712;28;20028;-65
2023/10/25 03:10:08;;;;;;;2.90;2.42;;;13.00;77.10;;;;;;5084997;28;20027;-64
2023/10/25 03:12:34;;;;;;;2.78;2.08;;;13.00;77.10;;;;;;5086155;28;20032;-63
2023/10/25 03:15:02;;;;;;;2.78;1.70;;;13.00;77.00;;;;;;5089118;28;20028;-63
2023/10/25 03:17:29;;;;;;;1.92;1.75;;;12.90;76.70;;;;;;5072103;28;20086;-64
2023/10/25 03:19:55;;;;;;;2.55;1.90;;;12.90;76.70;;;;;;5068124;28;20159;-63
2023/10/25 03:22:21;;;;;;;2.10;1.90;;;12.90;76.70;;;;;;5086993;28;20106;-63
2023/10/25 03:24:46;;;;;;;1.73;1.63;;;12.90;76.70;;;;;;5090507;28;20040;-62
2023/10/25 03:27:12;;;;;;;2.33;2.13;;;12.90;76.70;;;;;;5086723;28;20355;-63
2023/10/25 03:29:38;;;;;;;4.15;1.92;;;12.80;76.50;;;;;;5085493;28;20020;-63
2023/10/25 03:32:04;;;;;;;2.25;2.05;;;12.80;76.30;;;;;;5087799;28;20070;-63
2023/10/25 03:34:30;;;;;;;1.75;1.65;;;12.80;76.10;;;;;;5088408;28;20031;-64
2023/10/25 03:36:55;;;;;;;4.28;2.13;;;12.70;76.00;;;;;;5085418;28;20036;-64
2023/10/25 03:39:21;;;;;;;4.70;1.80;;;12.70;76.00;;;;;;5084722;28;20407;-63
2023/10/25 03:41:47;;;;;;;2.38;2.10;;;12.60;75.80;;;;;;5092039;28;20107;-62
2023/10/25 03:44:13;;;;;;;2.03;1.90;;;12.60;75.70;;;;;;5090387;28;20099;-63
2023/10/25 03:46:39;;;;;;;2.95;2.10;;;12.50;75.50;;;;;;5080792;28;20031;-62
2023/10/25 03:49:05;;;;;;;2.17;1.98;;;12.50;75.70;;;;;;5089284;28;20036;-63
2023/10/25 03:51:31;;;;;;;2.20;2.00;;;12.50;75.80;;;;;;5087915;28;20032;-63
2023/10/25 03:53:57;;;;;;;5.68;2.50;;;12.40;75.80;;;;;;5075056;28;20032;-64
2023/10/25 03:56:23;;;;;;;2.80;2.15;;;12.40;75.90;;;;;;5092145;28;20054;-64
2023/10/25 03:58:49;;;;;;;2.30;2.10;;;12.30;75.90;;;;;;5088346;28;20056;-62
2023/10/25 04:01:15;;;;;;;2.15;1.98;;;12.30;76.00;;;;;;5085667;28;20071;-62
2023/10/25 04:03:41;;;;;;;3.20;2.28;;;12.20;76.00;;;;;;5062736;28;20035;-63
2023/10/25 04:06:08;;;;;;;2.25;2.05;;;12.20;76.10;;;;;;5085031;28;20059;-62
2023/10/25 04:08:36;;;;;;;2.53;2.33;;;12.20;76.10;;;;;;5069426;28;20035;-63
2023/10/25 04:11:02;;;;;;;2.75;2.30;;;12.20;76.20;;;;;;5084290;28;20458;-64
2023/10/25 04:13:27;;;;;;;2.40;2.20;;;12.10;76.20;;;;;;5084897;28;20036;-63
2023/10/25 04:15:55;;;;;;;2.53;2.17;;;12.10;76.30;;;;;;5084805;28;20043;-63
2023/10/25 04:18:21;;;;;;;2.50;2.30;;;12.10;76.30;;;;;;5095351;28;20066;-63
2023/10/25 04:20:47;;;;;;;2.40;2.20;;;12.00;76.20;;;;;;5084004;28;20032;-63
2023/10/25 04:23:13;;;;;;;3.45;2.42;;;12.00;76.10;;;;;;5095557;28;20783;-62
2023/10/25 04:25:38;;;;;;;3.10;2.80;;;12.00;76.20;;;;;;5088945;28;20044;-63
2023/10/25 04:28:05;;;;;;;2.88;2.67;;;11.90;76.30;;;;;;5083709;28;20028;-64
2023/10/25 04:30:32;;;;;;;8.40;3.60;;;11.90;76.50;;;;;;5083639;28;20016;-63
2023/10/25 04:32:58;;;;;;;4.07;3.25;;;11.90;76.70;;;;;;5088553;28;20028;-64
2023/10/25 04:35:24;;;;;;;4.03;3.08;;;11.90;76.80;;;;;;5087068;28;20012;-63
2023/10/25 04:37:49;;;;;;;3.78;3.22;;;11.90;76.90;;;;;;5080490;28;20051;-63
2023/10/25 04:40:15;;;;;;;3.00;2.70;;;11.80;77.00;;;;;;5088162;28;20034;-63
2023/10/25 04:42:41;;;;;;;3.33;2.65;;;11.90;77.10;;;;;;5085054;28;20029;-64
2023/10/25 04:45:07;;;;;;;3.53;3.22;;;11.90;77.10;;;;;;4981625;28;20445;-60
2023/10/25 04:47:33;;;;;;;4.35;3.95;;;11.90;77.00;;;;;;5066008;28;20020;-62
2023/10/25 04:50:01;;;;;;;5.53;4.57;;;11.90;77.10;;;;;;5090581;28;20035;-63
2023/10/25 04:52:27;;;;;;;8.32;4.13;;;11.90;77.10;;;;;;5092515;28;20028;-63
2023/10/25 04:54:53;;;;;;;6.07;4.50;;;11.90;77.00;;;;;;5085925;28;20508;-63
2023/10/25 04:57:18;;;;;;;4.90;4.40;;;11.90;77.10;;;;;;5085793;28;20020;-64
2023/10/25 04:59:44;;;;;;;7.70;4.82;;;11.90;77.10;;;;;;5084874;28;20109;-64
2023/10/25 05:02:09;;;;;;;5.43;4.85;;;11.90;77.10;;;;;;5084706;28;20056;-62
2023/10/25 05:04:35;;;;;;;5.97;4.72;;;11.90;77.10;;;;;;5087409;28;20440;-63
2023/10/25 05:07:01;;;;;;;8.18;4.55;;;11.90;77.10;;;;;;5090068;28;20119;-62
2023/10/25 05:09:27;;;;;;;12.98;5.22;;;11.90;77.10;;;;;;5082529;28;20079;-63
2023/10/25 05:12:01;;;;;;;16.42;4.53;;;11.90;77.20;;;;;;5091094;28;20054;-63
2023/10/25 05:14:27;;;;;;;9.90;5.03;;;11.90;77.20;;;;;;5087459;28;20049;-62
2023/10/25 05:16:53;;;;;;;6.85;4.68;;;11.90;77.20;;;;;;5092602;28;20351;-64
2023/10/25 05:19:19;;;;;;;15.93;4.30;;;11.90;77.20;;;;;;5089054;28;20496;-64
2023/10/25 05:21:49;;;;;;;17.40;4.70;;;11.80;77.10;;;;;;5089831;28;20638;-63
2023/10/25 05:24:15;;;;;;;10.82;4.40;;;11.80;77.00;;;;;;5076854;28;20658;-64
2023/10/25 05:26:41;;;;;;;12.02;4.60;;;11.80;77.00;;;;;;5088692;28;20485;-64
2023/10/25 05:29:07;;;;;;;9.43;4.80;;;11.80;77.00;;;;;;5084379;28;20027;-63
2023/10/25 05:31:40;;;;;;;11.20;4.85;;;11.80;77.10;;;;;;5085367;28;20050;-62
2023/10/25 05:34:06;;;;;;;16.58;4.60;;;11.80;77.20;;;;;;5089886;28;20478;-63
2023/10/25 05:36:32;;;;;;;19.85;4.70;;;11.80;77.10;;;;;;5084415;28;20027;-62
2023/10/25 05:39:00;;;;;;;14.90;5.53;;;11.70;77.20;;;;;;5088021;28;20032;-64
2023/10/25 05:41:29;;;;;;;13.38;5.30;;;11.70;77.10;;;;;;5091630;28;20036;-63
2023/10/25 05:44:05;;;;;;;15.73;5.00;;;11.70;77.30;;;;;;5085582;28;20138;-63
2023/10/25 05:46:31;;;;;;;14.40;5.72;;;11.60;77.50;;;;;;5085837;28;20021;-62
2023/10/25 05:48:57;;;;;;;14.73;5.57;;;11.60;77.50;;;;;;5093000;28;20462;-62
2023/10/25 05:51:23;;;;;;;16.25;5.93;;;11.60;77.60;;;;;;5070815;28;20072;-63
2023/10/25 05:53:50;;;;;;;13.63;5.47;;;11.60;77.90;;;;;;5088136;28;20028;-62
2023/10/25 05:56:16;;;;;;;26.08;5.85;;;11.60;78.70;;;;;;5099008;28;20028;-63
2023/10/25 05:58:42;;;;;;;20.63;5.57;;;11.60;78.20;;;;;;5084110;28;20466;-63
2023/10/25 06:01:09;;;;;;;22.42;6.03;;;11.60;78.30;;;;;;5081247;28;20041;-63
2023/10/25 06:03:35;;;;;;;14.20;5.30;;;11.60;78.50;;;;;;5079824;28;20024;-61
2023/10/25 06:06:01;;;;;;;17.10;6.28;;;11.60;78.40;;;;;;5069643;28;20024;-62
2023/10/25 06:08:28;;;;;;;17.35;6.43;;;11.60;78.40;;;;;;5087969;28;20040;-63
2023/10/25 06:10:55;;;;;;;28.52;6.70;;;11.70;78.40;;;;;;5089642;28;20030;-65
2023/10/25 06:13:21;;;;;;;14.80;6.75;;;11.70;78.60;;;;;;5090063;28;20035;-64
2023/10/25 06:15:47;;;;;;;12.73;6.95;;;11.70;78.60;;;;;;5091240;28;20028;-65
2023/10/25 06:18:12;;;;;;;10.02;6.05;;;11.70;78.50;;;;;;5084313;28;20032;-64
2023/10/25 06:20:38;;;;;;;9.65;6.60;;;11.70;78.40;;;;;;5083602;28;20039;-63
2023/10/25 06:23:04;;;;;;;12.18;5.57;;;11.70;78.40;;;;;;5086724;28;20493;-65
2023/10/25 06:25:30;;;;;;;10.27;6.85;;;11.70;78.40;;;;;;5084170;28;20125;-65
2023/10/25 06:27:57;;;;;;;7.45;6.13;;;11.70;78.40;;;;;;5063360;28;20175;-64
2023/10/25 06:30:24;;;;;;;7.63;5.97;;;11.70;78.40;;;;;;5088907;28;20024;-65
2023/10/25 06:32:52;;;;;;;7.43;5.88;;;11.80;78.40;;;;;;5087479;28;20070;-64
2023/10/25 06:35:17;;;;;;;7.63;5.88;;;11.80;78.40;;;;;;5072267;28;20032;-65
2023/10/25 06:37:43;;;;;;;6.80;5.68;;;11.80;78.40;;;;;;5088179;28;20028;-63
2023/10/25 06:40:09;;;;;;;10.38;6.43;;;11.80;78.50;;;;;;5091868;28;20281;-63
2023/10/25 06:42:36;;;;;;;8.18;6.50;;;11.80;78.50;;;;;;5086136;28;20033;-65
2023/10/25 06:45:04;;;;;;;10.18;6.50;;;11.90;78.60;;;;;;5005815;28;20022;-60
2023/10/25 06:47:29;;;;;;;6.80;5.80;;;11.90;78.60;;;;;;5066846;28;20386;-64
2023/10/25 06:49:57;;;;;;;6.30;5.65;;;11.90;78.50;;;;;;5088716;28;20023;-65
2023/10/25 06:52:23;;;;;;;9.07;6.65;;;11.90;78.40;;;;;;5102206;27;20367;-65
2023/10/25 06:54:49;;;;;;;11.55;7.00;;;12.00;78.50;;;;;;5081875;28;20032;-65
2023/10/25 06:57:15;;;;;;;10.10;7.38;;;12.00;78.30;;;;;;5097679;28;20051;-65
2023/10/25 06:59:41;;;;;;;8.80;6.82;;;12.00;78.20;;;;;;5085544;28;20525;-65
2023/10/25 07:02:40;;;;;;;10.20;6.55;;;12.10;79.00;;;;;;5088780;28;20024;-64
2023/10/25 07:05:13;;;;;;;7.82;6.22;;;12.10;78.40;;;;;;5087818;28;20069;-63
2023/10/25 07:07:41;;;;;;;9.18;6.63;;;12.10;78.20;;;;;;5085816;28;20038;-65
2023/10/25 07:10:11;;;;;;;7.57;6.22;;;12.10;78.20;;;;;;5089603;28;20048;-65
2023/10/25 07:12:37;;;;;;;9.45;6.85;;;12.10;78.40;;;;;;5089189;28;20018;-65
2023/10/25 07:15:03;;;;;;;10.35;7.47;;;12.10;78.40;;;;;;5087040;28;20016;-65
2023/10/25 07:17:29;;;;;;;9.85;7.47;;;12.20;78.40;;;;;;5089568;28;20656;-64
2023/10/25 07:19:55;;;;;;;10.32;7.35;;;12.20;78.40;;;;;;5090088;28;20055;-65
2023/10/25 07:22:21;;;;;;;11.63;7.97;;;12.20;78.50;;;;;;5088431;28;20024;-64
2023/10/25 07:24:46;;;;;;;12.60;7.45;;;12.30;78.60;;;;;;5087016;28;20046;-65
2023/10/25 07:27:12;;;;;;;10.90;8.02;;;12.30;78.60;;;;;;5091708;28;20090;-64
2023/10/25 07:29:39;;;;;;;14.82;7.75;;;12.30;78.60;;;;;;5082734;28;20093;-66
2023/10/25 07:32:05;;;;;;;15.30;8.93;;;12.40;78.70;;;;;;5087476;28;20024;-66
2023/10/25 07:34:31;;;;;;;17.33;9.98;;;12.40;78.60;;;;;;5088819;28;20043;-64
2023/10/25 07:36:56;;;;;;;18.58;10.35;;;12.50;78.60;;;;;;5093354;28;20032;-65
2023/10/25 07:39:22;;;;;;;14.88;9.40;;;12.50;78.40;;;;;;5096650;27;20028;-65
2023/10/25 07:41:48;;;;;;;19.08;8.77;;;12.60;78.10;;;;;;5083395;28;20823;-65
2023/10/25 07:44:13;;;;;;;15.25;8.80;;;12.60;77.70;;;;;;5087351;28;20029;-65
2023/10/25 07:46:40;;;;;;;13.63;8.20;;;12.60;77.50;;;;;;5022771;28;20023;-65
2023/10/25 07:49:06;;;;;;;16.90;8.82;;;12.60;77.60;;;;;;5066983;28;20386;-66
2023/10/25 07:51:31;;;;;;;11.98;8.38;;;12.70;77.80;;;;;;5084098;28;20038;-63
2023/10/25 07:53:57;;;;;;;12.52;8.25;;;12.70;77.60;;;;;;5084388;28;20742;-63
2023/10/25 07:56:23;;;;;;;14.15;9.15;;;12.70;77.50;;;;;;5086824;28;20471;-65
2023/10/25 07:58:50;;;;;;;18.63;10.20;;;12.80;77.50;;;;;;5086777;28;20028;-65
2023/10/25 08:01:16;;;;;;;14.50;9.52;;;12.80;77.30;;;;;;5080566;28;20036;-65
2023/10/25 08:03:41;;;;;;;12.07;8.48;;;12.80;77.30;;;;;;5085503;28;20027;-65
2023/10/25 08:06:07;;;;;;;15.93;9.68;;;12.80;77.40;;;;;;5081025;28;20028;-64
2023/10/25 08:08:33;;;;;;;15.65;9.25;;;12.80;77.40;;;;;;5076673;28;20565;-65
2023/10/25 08:11:03;;;;;;;19.88;10.40;;;12.90;77.40;;;;;;5087103;28;20024;-65
2023/10/25 08:13:35;;;;;;;16.90;8.77;;;12.90;77.50;;;;;;5086532;28;20111;-65
2023/10/25 08:16:02;;;;;;;15.75;8.15;;;12.90;77.40;;;;;;5079080;28;20047;-64
2023/10/25 08:18:29;;;;;;;13.38;7.85;;;12.90;77.30;;;;;;5083490;28;20016;-64
2023/10/25 08:20:55;;;;;;;12.23;7.97;;;13.00;77.30;;;;;;5090209;28;20048;-65
2023/10/25 08:23:21;;;;;;;19.92;9.52;;;13.00;77.30;;;;;;5084901;28;20834;-64
2023/10/25 08:25:47;;;;;;;13.98;8.23;;;13.00;77.40;;;;;;5086122;28;20080;-66
2023/10/25 08:28:13;;;;;;;15.20;8.57;;;13.10;77.60;;;;;;5089005;28;20111;-66
2023/10/25 08:30:39;;;;;;;12.70;8.23;;;13.10;77.40;;;;;;5076310;28;20039;-63
2023/10/25 08:33:04;;;;;;;14.85;8.70;;;13.10;77.20;;;;;;5086543;28;20024;-64
2023/10/25 08:35:30;;;;;;;16.75;9.18;;;13.20;77.10;;;;;;5085082;28;20047;-66
2023/10/25 08:37:56;;;;;;;20.35;9.52;;;13.20;76.90;;;;;;5088711;28;20020;-66
2023/10/25 08:40:24;;;;;;;15.43;8.20;;;13.20;77.00;;;;;;5086856;28;20036;-65
2023/10/25 08:42:50;;;;;;;14.88;7.72;;;13.30;77.40;;;;;;5085454;28;20677;-64
2023/10/25 08:45:16;;;;;;;10.57;6.85;;;13.30;77.20;;;;;;5082641;28;20032;-64
2023/10/25 08:47:42;;;;;;;11.77;7.43;;;13.30;77.00;;;;;;5090178;28;20027;-64
2023/10/25 08:50:09;;;;;;;12.95;8.45;;;13.40;77.20;;;;;;5097086;28;20135;-64
2023/10/25 08:52:37;;;;;;;15.80;7.85;;;13.40;77.20;;;;;;5088141;28;20020;-63
2023/10/25 08:55:06;;;;;;;12.57;7.82;;;13.40;76.90;;;;;;5089357;28;20110;-65
2023/10/25 08:57:32;;;;;;;14.40;8.20;;;13.50;77.00;;;;;;5089091;28;20046;-64
2023/10/25 08:59:57;;;;;;;11.63;6.85;;;13.50;77.10;;;;;;5088590;28;20394;-65
2023/10/25 09:02:23;;;;;;;8.70;6.88;;;13.50;77.20;;;;;;5092160;28;20028;-66
2023/10/25 09:05:07;;;;;;;8.52;6.22;;;13.60;78.00;;;;;;5089698;28;20101;-65
2023/10/25 09:07:35;;;;;;;9.45;6.45;;;13.70;77.00;;;;;;5092867;28;20067;-64
2023/10/25 09:10:05;;;;;;;9.77;6.13;;;13.70;76.90;;;;;;5089102;28;20031;-65
2023/10/25 09:12:32;;;;;;;9.23;5.97;;;13.80;76.70;;;;;;5090237;28;20020;-65
2023/10/25 09:14:58;;;;;;;9.10;6.45;;;13.80;76.60;;;;;;5090026;28;20024;-64
2023/10/25 09:17:24;;;;;;;9.95;6.32;;;13.80;76.60;;;;;;5090023;28;20036;-65
2023/10/25 09:19:50;;;;;;;12.90;7.35;;;13.90;76.60;;;;;;5087682;28;20059;-64
2023/10/25 09:22:25;;;;;;;8.07;6.20;;;13.90;76.60;;;;;;5113487;28;20039;-64
2023/10/25 09:24:56;;;;;;;8.45;5.97;;;14.00;76.40;;;;;;5109467;28;20090;-65
2023/10/25 09:27:22;;;;;;;8.45;6.60;;;14.00;76.40;;;;;;5113733;28;20061;-65
2023/10/25 09:29:49;;;;;;;8.20;5.63;;;14.10;76.50;;;;;;5111798;28;20024;-64
2023/10/25 09:32:16;;;;;;;9.95;6.32;;;14.10;76.10;;;;;;5085449;28;20458;-64
2023/10/25 09:34:42;;;;;;;9.60;6.38;;;14.20;76.10;;;;;;5085172;28;20027;-65
2023/10/25 09:37:08;;;;;;;9.18;6.90;;;14.20;76.00;;;;;;5085685;28;20028;-64
2023/10/25 09:39:37;;;;;;;7.93;6.28;;;14.20;75.80;;;;;;5086659;28;20134;-65
2023/10/25 09:42:10;;;;;;;7.35;5.93;;;14.30;75.80;;;;;;5089567;28;20367;-64
2023/10/25 09:44:52;;;;;;;8.32;6.15;;;14.30;75.70;;;;;;5090958;28;20016;-64
2023/10/25 09:47:19;;;;;;;9.27;6.22;;;14.40;75.60;;;;;;4971041;28;20093;-63
2023/10/25 09:49:52;;;;;;;10.55;6.13;;;14.40;75.70;;;;;;5086252;28;20059;-65
2023/10/25 09:52:26;;;;;;;10.43;6.15;;;14.40;75.60;;;;;;5097645;28;20016;-64
2023/10/25 09:54:55;;;;;;;;;;;14.50;75.50;;;;;;5090029;28;20047;-65
2023/10/25 09:57:21;;;;;;;11.38;6.57;;;14.60;75.50;;;;;;5084542;28;19957;-65
2023/10/25 09:59:47;;;;;;;10.18;6.95;;;14.60;75.20;;;;;;5088356;28;20155;-65
2023/10/25 10:02:36;;;;;;;12.40;6.78;;;14.50;75.10;;;;;;5091756;28;20602;-65
2023/10/25 10:05:11;;;;;;;9.95;6.40;;;14.50;74.50;;;;;;5084485;28;20466;-65
2023/10/25 10:08:12;;;;;;;11.38;6.65;;;14.50;74.70;;;;;;5068664;28;20523;-65
2023/10/25 10:10:57;;;;;;;8.43;6.13;;;14.50;74.60;;;;;;4972210;28;20494;-65
2023/10/25 10:13:23;;;;;;;10.23;6.38;;;14.60;74.60;;;;;;4968764;28;20763;-64
2023/10/25 10:16:04;;;;;;;11.07;6.85;;;14.60;75.00;;;;;;4966591;28;20542;-65
2023/10/25 10:18:33;;;;;;;14.45;6.18;;;14.60;75.10;;;;;;4967116;28;20112;-66
2023/10/25 10:21:07;;;;;;;9.30;6.93;;;14.60;75.20;;;;;;4970587;28;20095;-64
2023/10/25 10:23:39;;;;;;;8.27;6.30;;;14.60;75.30;;;;;;4955854;28;20022;-64
2023/10/25 10:26:08;;;;;;;10.07;6.28;;;14.60;75.20;;;;;;4968835;28;20046;-66
2023/10/25 10:28:51;;;;;;;10.07;7.00;;;14.60;75.10;;;;;;4964270;28;20027;-65
2023/10/25 10:31:18;;;;;;;8.23;6.38;;;14.60;74.60;;;;;;4962928;28;20030;-65
2023/10/25 10:33:45;;;;;;;9.35;5.95;;;14.60;74.90;;;;;;4959302;28;20046;-65
2023/10/25 10:36:21;;;;;;;10.13;6.90;;;14.60;74.80;;;;;;4964323;28;20149;-65
2023/10/25 10:39:12;;;;;;;9.77;6.93;;;14.60;74.60;;;;;;4969528;28;20081;-65
2023/10/25 10:41:39;;;;;;;8.93;6.22;;;14.60;74.30;;;;;;4962955;28;20523;-64
2023/10/25 10:44:05;;;;;;;7.95;6.03;;;14.50;74.50;;;;;;4965753;28;20034;-65
2023/10/25 10:46:31;;;;;;;9.02;6.10;;;14.50;74.70;;;;;;4944867;28;20040;-64
2023/10/25 10:49:02;;;;;;;9.73;6.63;;;14.50;75.40;;;;;;5088671;28;20114;-66
2023/10/25 10:51:27;;;;;;;8.07;6.07;;;14.50;74.90;;;;;;5089553;28;20469;-65
2023/10/25 10:53:54;;;;;;;8.30;5.63;;;14.50;75.20;;;;;;5073601;28;20119;-66
2023/10/25 10:56:19;;;;;;;8.82;5.47;;;14.50;75.40;;;;;;5087993;28;20027;-66
2023/10/25 10:58:45;;;;;;;10.02;6.38;;;14.50;75.40;;;;;;5089233;28;20012;-66
2023/10/25 11:01:11;;;;;;;9.63;5.93;;;14.60;75.30;;;;;;5087689;28;20032;-66
2023/10/25 11:03:37;;;;;;;11.50;5.82;;;14.60;75.20;;;;;;5090345;28;20036;-66
2023/10/25 11:06:04;;;;;;;9.73;5.53;;;14.60;75.20;;;;;;5089338;28;20032;-63
2023/10/25 11:08:32;;;;;;;9.38;5.53;;;14.70;75.30;;;;;;5092562;28;20489;-65
2023/10/25 11:10:58;;;;;;;9.00;5.57;;;14.70;75.50;;;;;;5087265;28;20024;-66
2023/10/25 11:13:24;;;;;;;7.68;5.53;;;14.80;75.70;;;;;;5087348;28;20482;-66
2023/10/25 11:16:06;;;;;;;7.30;5.03;;;14.90;75.70;;;;;;5086568;28;20027;-66
2023/10/25 11:18:32;;;;;;;10.40;5.00;;;15.00;75.10;;;;;;5088600;28;20023;-64
2023/10/25 11:21:00;;;;;;;12.18;5.15;;;15.10;74.90;;;;;;5070134;28;20406;-64
2023/10/25 11:23:25;;;;;;;6.38;4.35;;;15.10;74.70;;;;;;5089715;28;20089;-67
2023/10/25 11:25:52;;;;;;;5.93;4.50;;;15.20;74.80;;;;;;5085914;28;20489;-65
2023/10/25 11:28:20;;;;;;;7.82;4.25;;;15.40;74.50;;;;;;5092461;28;20382;-67
2023/10/25 11:30:49;;;;;;;12.55;4.53;;;15.40;74.20;;;;;;5088079;28;20063;-65
2023/10/25 11:33:16;;;;;;;5.50;3.83;;;15.50;74.10;;;;;;5090609;28;20119;-65
2023/10/25 11:35:44;;;;;;;7.32;3.92;;;15.50;74.10;;;;;;5093480;28;20020;-65
2023/10/25 11:38:11;;;;;;;5.75;3.65;;;15.60;73.80;;;;;;5092673;28;20039;-65
2023/10/25 11:40:42;;;;;;;6.80;3.28;;;15.60;73.80;;;;;;5086871;28;20032;-65
2023/10/25 11:43:08;;;;;;;4.78;3.63;;;15.70;73.70;;;;;;5089860;28;20036;-65
2023/10/25 11:45:37;;;;;;;6.75;4.10;;;15.70;73.50;;;;;;5026995;28;20036;-65
2023/10/25 11:48:04;;;;;;;6.00;3.67;;;15.80;73.20;;;;;;5087403;28;20032;-65
2023/10/25 11:50:29;;;;;;;6.03;3.67;;;15.80;73.20;;;;;;5091727;28;20020;-65
2023/10/25 11:52:56;;;;;;;5.68;3.63;;;15.80;73.30;;;;;;5084831;28;20114;-66
2023/10/25 11:55:22;;;;;;;5.32;3.60;;;15.80;73.30;;;;;;5086249;28;20404;-65
2023/10/25 11:57:47;;;;;;;5.13;3.53;;;15.80;73.40;;;;;;5088887;28;20042;-65
2023/10/25 12:00:13;;;;;;;7.93;3.90;;;15.80;73.50;;;;;;5091786;28;20032;-65
2023/10/25 12:02:39;;;;;;;5.45;3.90;;;15.90;73.70;;;;;;5087723;28;20505;-65
2023/10/25 12:05:05;;;;;;;4.78;3.50;;;15.90;73.50;;;;;;5087888;28;20032;-64
2023/10/25 12:07:31;;;;;;;3.63;3.13;;;16.00;73.50;;;;;;5091394;28;20024;-64
2023/10/25 12:09:57;;;;;;;3.42;2.58;;;16.00;73.60;;;;;;5093351;28;20016;-66
2023/10/25 12:12:24;;;;;;;4.82;3.38;;;16.10;73.30;;;;;;5088946;28;20813;-65
2023/10/25 12:14:51;;;;;;;9.65;3.65;;;16.10;73.30;;;;;;5091355;28;20051;-65
2023/10/25 12:17:17;;;;;;;4.35;3.50;;;16.10;73.30;;;;;;5087682;28;20489;-65
2023/10/25 12:19:44;;;;;;;4.63;3.53;;;16.20;73.40;;;;;;5087025;28;20378;-64
2023/10/25 12:22:12;;;;;;;4.25;3.45;;;16.20;73.30;;;;;;5091975;28;20024;-66
2023/10/25 12:24:40;;;;;;;4.90;3.83;;;16.20;73.00;;;;;;5096921;28;20093;-65
2023/10/25 12:27:09;;;;;;;5.45;4.57;;;16.30;73.10;;;;;;5093793;28;20118;-66
2023/10/25 12:29:35;;;;;;;4.97;4.20;;;16.30;73.10;;;;;;5087702;28;20613;-67
2023/10/25 12:32:03;;;;;;;4.35;3.53;;;16.30;73.10;;;;;;5092910;28;20061;-64
2023/10/25 12:34:29;;;;;;;5.13;3.83;;;16.30;73.10;;;;;;5089221;28;20129;-66
2023/10/25 12:36:54;;;;;;;3.83;3.13;;;16.30;73.20;;;;;;5092362;28;20478;-65
2023/10/25 12:39:20;;;;;;;4.68;3.33;;;16.30;73.20;;;;;;5091636;28;20032;-66
2023/10/25 12:41:47;;;;;;;4.97;3.22;;;16.40;73.30;;;;;;5088914;28;20044;-65
2023/10/25 12:44:13;;;;;;;4.05;3.40;;;16.40;73.20;;;;;;5091324;28;20574;-65